createdAt,value
2023-05-20T00:00:53.618Z,61.97
2023-05-20T00:01:59.842Z,61.98
2023-05-20T00:03:07.264Z,62.14
2023-05-20T00:04:14.196Z,62.01
2023-05-20T00:05:21.112Z,61.97
2023-05-20T00:06:27.346Z,62.06
2023-05-20T00:07:33.687Z,62.09
2023-05-20T00:08:39.654Z,61.93
2023-05-20T00:09:46.748Z,62.12
2023-05-20T00:10:52.872Z,62.14
2023-05-20T00:11:58.979Z,62.20
2023-05-20T00:13:06.960Z,62.25
2023-05-20T00:14:13.082Z,62.34
2023-05-20T00:15:19.599Z,62.44
2023-05-20T00:16:26.133Z,62.42
2023-05-20T00:17:32.772Z,62.46
2023-05-20T00:18:39.257Z,62.76
2023-05-20T00:19:46.026Z,63.03
2023-05-20T00:20:51.816Z,63.05
2023-05-20T00:21:58.141Z,63.19
2023-05-20T00:23:04.578Z,63.08
2023-05-20T00:24:11.080Z,63.22
2023-05-20T00:25:18.177Z,63.19
2023-05-20T00:26:25.148Z,63.41
2023-05-20T00:27:31.247Z,63.38
2023-05-20T00:28:37.415Z,63.61
2023-05-20T00:29:43.638Z,63.56
2023-05-20T00:30:49.907Z,63.77
2023-05-20T00:31:56.186Z,63.80
2023-05-20T00:33:02.993Z,63.85
2023-05-20T00:34:10.381Z,63.96
2023-05-20T00:35:16.766Z,64.10
2023-05-20T00:36:22.832Z,64.20
2023-05-20T00:37:29.379Z,64.30
2023-05-20T00:38:37.764Z,64.57
2023-05-20T00:39:45.049Z,64.55
2023-05-20T00:40:51.275Z,64.60
2023-05-20T00:42:00.729Z,64.63
2023-05-20T00:43:06.981Z,64.79
2023-05-20T00:44:13.437Z,64.79
2023-05-20T00:45:20.509Z,64.79
2023-05-20T00:46:30.485Z,65.05
2023-05-20T00:47:39.442Z,65.36
2023-05-20T00:48:45.219Z,65.41
2023-05-20T00:49:53.347Z,65.62
2023-05-20T00:50:59.666Z,65.68
2023-05-20T00:52:08.114Z,65.64
2023-05-20T00:53:17.730Z,65.69
2023-05-20T00:54:24.368Z,65.84
2023-05-20T00:55:32.037Z,65.92
2023-05-20T00:56:39.272Z,65.92
2023-05-20T00:57:46.099Z,65.98
2023-05-20T00:58:52.976Z,66.06
2023-05-20T01:00:00.296Z,66.10
2023-05-20T01:01:06.917Z,66.11
2023-05-20T01:02:13.831Z,66.12
2023-05-20T01:03:20.186Z,66.15
2023-05-20T01:04:26.826Z,66.43
2023-05-20T01:05:34.095Z,66.58
2023-05-20T01:06:40.861Z,66.61
2023-05-20T01:07:47.033Z,66.55
2023-05-20T01:08:52.777Z,67.00
2023-05-20T01:09:59.933Z,66.93
2023-05-20T01:11:09.411Z,67.03
2023-05-20T01:12:21.584Z,66.98
2023-05-20T01:13:34.562Z,67.17
2023-05-20T01:14:48.495Z,67.32
2023-05-20T01:15:57.292Z,67.23
2023-05-20T01:17:11.051Z,67.32
2023-05-20T01:18:18.834Z,67.48
2023-05-20T01:19:38.765Z,67.56
2023-05-20T01:20:47.597Z,67.57
2023-05-20T01:21:55.491Z,67.57
2023-05-20T01:23:01.890Z,67.57
2023-05-20T01:24:09.125Z,67.84
2023-05-20T01:25:15.421Z,67.82
2023-05-20T01:26:27.380Z,67.83
2023-05-20T01:27:34.012Z,68.07
2023-05-20T01:28:40.206Z,68.18
2023-05-20T01:29:48.541Z,68.19
2023-05-20T01:30:57.072Z,68.02
2023-05-20T01:32:09.318Z,68.04
2023-05-20T01:33:19.413Z,68.18
2023-05-20T01:34:26.028Z,68.18
2023-05-20T01:35:34.116Z,68.23
2023-05-20T01:36:43.198Z,68.29
2023-05-20T01:37:50.711Z,68.33
2023-05-20T01:38:57.898Z,68.27
2023-05-20T01:40:08.365Z,68.58
2023-05-20T01:41:15.200Z,68.54
2023-05-20T01:42:21.466Z,68.44
2023-05-20T01:43:29.283Z,68.45
2023-05-20T01:44:35.358Z,68.50
2023-05-20T01:45:43.613Z,68.53
2023-05-20T01:46:52.565Z,68.54
2023-05-20T01:47:57.096Z,68.76
2023-05-20T01:49:03.027Z,68.80
2023-05-20T01:50:11.443Z,68.69
2023-05-20T01:51:18.104Z,68.58
2023-05-20T01:52:25.247Z,68.53
2023-05-20T01:53:32.237Z,68.55
2023-05-20T01:54:39.092Z,68.52
2023-05-20T01:55:45.239Z,68.62
2023-05-20T01:56:52.004Z,68.45
2023-05-20T01:57:57.756Z,68.34
2023-05-20T01:59:03.619Z,68.34
2023-05-20T02:00:11.884Z,68.34
2023-05-20T02:01:18.092Z,68.31
2023-05-20T02:02:24.429Z,68.35
2023-05-20T02:03:30.621Z,68.45
2023-05-20T02:04:36.539Z,68.51
2023-05-20T02:05:42.994Z,68.52
2023-05-20T02:06:49.751Z,68.62
2023-05-20T02:07:56.118Z,68.38
2023-05-20T02:09:02.158Z,68.37
2023-05-20T02:10:11.685Z,68.42
2023-05-20T02:11:17.846Z,68.44
2023-05-20T02:12:23.936Z,68.36
2023-05-20T02:13:30.323Z,68.32
2023-05-20T02:14:36.961Z,68.48
2023-05-20T02:15:45.026Z,68.43
2023-05-20T02:16:51.093Z,68.34
2023-05-20T02:17:58.356Z,68.59
2023-05-20T02:19:05.979Z,68.48
2023-05-20T02:20:14.324Z,68.69
2023-05-20T02:21:22.339Z,68.56
2023-05-20T02:22:29.192Z,68.76
2023-05-20T02:23:35.459Z,69.03
2023-05-20T02:24:43.744Z,69.25
2023-05-20T02:25:49.917Z,69.26
2023-05-20T02:26:57.517Z,69.09
2023-05-20T02:28:06.508Z,69.13
2023-05-20T02:29:12.794Z,69.07
2023-05-20T02:30:19.513Z,69.08
2023-05-20T02:31:26.080Z,69.40
2023-05-20T02:32:33.835Z,69.70
2023-05-20T02:33:39.460Z,69.81
2023-05-20T02:34:45.583Z,69.86
2023-05-20T02:35:51.650Z,69.84
2023-05-20T02:36:57.891Z,69.84
2023-05-20T02:38:03.643Z,69.84
2023-05-20T02:39:10.373Z,69.90
2023-05-20T02:40:17.663Z,70.15
2023-05-20T02:41:23.643Z,70.22
2023-05-20T02:42:29.395Z,70.36
2023-05-20T02:43:36.542Z,70.50
2023-05-20T02:44:42.331Z,70.30
2023-05-20T02:45:49.699Z,70.42
2023-05-20T02:46:55.840Z,70.49
2023-05-20T02:48:02.142Z,70.60
2023-05-20T02:49:09.229Z,70.68
2023-05-20T02:50:15.600Z,70.62
2023-05-20T02:51:21.887Z,70.51
2023-05-20T02:52:28.520Z,70.51
2023-05-20T02:53:34.374Z,70.71
2023-05-20T02:54:40.763Z,70.75
2023-05-20T02:55:49.126Z,70.74
2023-05-20T02:56:55.368Z,70.68
2023-05-20T02:58:01.250Z,70.60
2023-05-20T02:59:08.559Z,70.58
2023-05-20T03:00:16.522Z,70.78
2023-05-20T03:01:23.618Z,70.78
2023-05-20T03:02:29.919Z,70.60
2023-05-20T03:03:44.003Z,70.64
2023-05-20T03:04:50.748Z,70.44
2023-05-20T03:05:57.902Z,70.59
2023-05-20T03:07:04.684Z,70.51
2023-05-20T03:08:12.877Z,70.48
2023-05-20T03:09:20.223Z,70.69
2023-05-20T03:10:27.535Z,70.49
2023-05-20T03:11:33.637Z,70.23
2023-05-20T03:12:40.153Z,70.28
2023-05-20T03:13:46.918Z,70.04
2023-05-20T03:14:55.456Z,70.09
2023-05-20T03:16:01.939Z,69.98
2023-05-20T03:17:08.475Z,69.96
2023-05-20T03:18:15.425Z,69.89
2023-05-20T03:19:22.807Z,69.70
2023-05-20T03:20:32.889Z,69.77
2023-05-20T03:21:39.650Z,69.70
2023-05-20T03:22:45.706Z,69.44
2023-05-20T03:23:52.132Z,69.54
2023-05-20T03:24:58.531Z,69.52
2023-05-20T03:26:07.004Z,69.52
2023-05-20T03:27:13.502Z,69.51
2023-05-20T03:28:19.777Z,69.53
2023-05-20T03:29:26.968Z,69.50
2023-05-20T03:30:33.116Z,69.44
2023-05-20T03:31:39.372Z,69.53
2023-05-20T03:32:52.093Z,69.66
2023-05-20T03:33:58.424Z,69.73
2023-05-20T03:35:05.883Z,69.54
2023-05-20T03:36:12.157Z,69.49
2023-05-20T03:37:18.148Z,69.44
2023-05-20T03:38:24.353Z,69.75
2023-05-20T03:39:30.374Z,69.57
2023-05-20T03:40:37.103Z,69.63
2023-05-20T03:41:44.068Z,69.50
2023-05-20T03:42:52.621Z,69.60
2023-05-20T03:43:58.706Z,69.58
2023-05-20T03:45:07.136Z,69.47
2023-05-20T03:46:13.270Z,69.62
2023-05-20T03:47:20.015Z,69.46
2023-05-20T03:48:26.153Z,69.46
2023-05-20T03:49:32.980Z,69.35
2023-05-20T03:50:39.988Z,69.34
2023-05-20T03:51:46.520Z,69.40
2023-05-20T03:52:52.561Z,69.33
2023-05-20T03:53:58.729Z,69.32
2023-05-20T03:55:06.527Z,69.27
2023-05-20T03:56:12.897Z,69.23
2023-05-20T03:57:19.954Z,69.18
2023-05-20T03:58:26.977Z,69.09
2023-05-20T03:59:33.191Z,68.98
2023-05-20T04:00:39.841Z,69.00
2023-05-20T04:01:46.694Z,68.92
2023-05-20T04:02:52.842Z,68.83
2023-05-20T04:04:00.428Z,68.86
2023-05-20T04:05:10.538Z,68.81
2023-05-20T04:06:16.656Z,68.77
2023-05-20T04:07:22.716Z,68.76
2023-05-20T04:08:29.281Z,68.67
2023-05-20T04:09:35.167Z,68.53
2023-05-20T04:10:43.263Z,68.37
2023-05-20T04:11:49.311Z,68.36
2023-05-20T04:12:55.579Z,68.29
2023-05-20T04:14:01.705Z,68.41
2023-05-20T04:15:11.894Z,68.48
2023-05-20T04:16:18.434Z,68.37
2023-05-20T04:17:24.642Z,68.28
2023-05-20T04:18:31.905Z,68.24
2023-05-20T04:19:38.369Z,68.03
2023-05-20T04:20:45.893Z,67.97
2023-05-20T04:21:51.751Z,67.89
2023-05-20T04:22:58.436Z,67.83
2023-05-20T04:24:04.855Z,67.69
2023-05-20T04:25:12.497Z,67.51
2023-05-20T04:26:19.028Z,67.51
2023-05-20T04:27:25.902Z,67.50
2023-05-20T04:28:31.976Z,67.42
2023-05-20T04:29:38.812Z,67.36
2023-05-20T04:30:45.910Z,67.09
2023-05-20T04:31:53.768Z,66.56
2023-05-20T04:33:04.180Z,66.23
2023-05-20T04:34:10.966Z,65.87
2023-05-20T04:35:17.250Z,65.45
2023-05-20T04:36:28.679Z,65.05
2023-05-20T04:37:35.502Z,64.55
2023-05-20T04:38:42.364Z,64.19
2023-05-20T04:39:50.016Z,63.95
2023-05-20T04:40:58.487Z,63.82
2023-05-20T04:42:05.394Z,63.26
2023-05-20T04:43:12.285Z,63.13
2023-05-20T04:44:17.985Z,63.00
2023-05-20T04:45:24.059Z,62.92
2023-05-20T04:46:30.191Z,62.75
2023-05-20T04:47:39.358Z,62.51
2023-05-20T04:48:45.999Z,62.30
2023-05-20T04:49:53.100Z,61.92
2023-05-20T04:50:58.916Z,61.92
2023-05-20T04:52:05.749Z,61.63
2023-05-20T04:53:11.689Z,61.52
2023-05-20T04:54:20.452Z,61.57
2023-05-20T04:55:28.007Z,61.36
2023-05-20T04:56:33.987Z,61.37
2023-05-20T04:57:42.501Z,61.39
2023-05-20T04:58:50.191Z,61.36
2023-05-20T04:59:59.464Z,61.32
2023-05-20T05:01:06.616Z,61.24
2023-05-20T05:02:12.750Z,60.61
2023-05-20T05:03:19.561Z,60.69
2023-05-20T05:04:26.466Z,60.61
2023-05-20T05:05:33.136Z,60.74
2023-05-20T05:06:39.400Z,60.93
2023-05-20T05:07:45.811Z,61.14
2023-05-20T05:08:51.550Z,60.92
2023-05-20T05:09:57.723Z,61.12
2023-05-20T05:11:05.626Z,60.94
2023-05-20T05:12:11.867Z,60.83
2023-05-20T05:13:17.943Z,60.70
2023-05-20T05:14:24.524Z,60.52
2023-05-20T05:15:31.254Z,60.27
2023-05-20T05:16:37.499Z,60.29
2023-05-20T05:17:43.429Z,60.22
2023-05-20T05:18:49.906Z,60.30
2023-05-20T05:19:56.281Z,60.11
2023-05-20T05:21:04.478Z,60.10
2023-05-20T05:22:11.196Z,59.94
2023-05-20T05:23:17.540Z,59.94
2023-05-20T05:24:23.213Z,59.85
2023-05-20T05:25:29.620Z,59.72
2023-05-20T05:26:35.920Z,59.53
2023-05-20T05:27:42.962Z,59.30
2023-05-20T05:28:49.128Z,59.23
2023-05-20T05:29:55.101Z,59.07
2023-05-20T05:31:02.862Z,58.81
2023-05-20T05:32:10.247Z,58.67
2023-05-20T05:33:17.700Z,58.60
2023-05-20T05:34:23.839Z,58.63
2023-05-20T05:35:30.189Z,58.47
2023-05-20T05:36:38.452Z,58.27
2023-05-20T05:37:44.532Z,57.80
2023-05-20T05:38:51.161Z,57.75
2023-05-20T05:39:57.386Z,57.24
2023-05-20T05:41:04.292Z,56.81
2023-05-20T05:42:10.873Z,56.71
2023-05-20T05:43:16.875Z,56.66
2023-05-20T05:44:23.400Z,56.49
2023-05-20T05:45:29.924Z,56.38
2023-05-20T05:46:36.288Z,55.99
2023-05-20T05:47:43.125Z,55.72
2023-05-20T05:48:51.711Z,55.34
2023-05-20T05:49:58.265Z,54.58
2023-05-20T05:51:04.930Z,53.38
2023-05-20T05:52:11.289Z,52.60
2023-05-20T05:53:17.215Z,53.00
2023-05-20T05:54:23.376Z,53.40
2023-05-20T05:55:29.948Z,53.41
2023-05-20T05:56:36.080Z,52.99
2023-05-20T05:57:42.077Z,52.18
2023-05-20T05:58:48.647Z,52.13
2023-05-20T05:59:56.055Z,50.93
2023-05-20T06:01:02.366Z,50.83
2023-05-20T06:02:11.129Z,51.34
2023-05-20T06:03:18.082Z,51.08
2023-05-20T06:04:24.875Z,50.43
2023-05-20T06:05:31.451Z,50.81
2023-05-20T06:06:38.129Z,51.46
2023-05-20T06:07:46.088Z,51.17
2023-05-20T06:08:52.616Z,51.18
2023-05-20T06:09:59.603Z,51.01
2023-05-20T06:11:06.874Z,50.85
2023-05-20T06:12:13.972Z,50.68
2023-05-20T06:13:22.906Z,50.61
2023-05-20T06:14:29.254Z,50.67
2023-05-20T06:15:36.912Z,51.33
2023-05-20T06:16:44.454Z,51.30
2023-05-20T06:17:53.554Z,51.14
2023-05-20T06:19:02.663Z,50.83
2023-05-20T06:20:12.467Z,50.74
2023-05-20T06:21:19.209Z,50.71
2023-05-20T06:22:24.950Z,50.55
2023-05-20T06:23:31.627Z,50.20
2023-05-20T06:24:38.004Z,50.52
2023-05-20T06:25:44.303Z,50.61
2023-05-20T06:26:51.192Z,50.38
2023-05-20T06:27:57.199Z,50.19
2023-05-20T06:29:03.613Z,50.12
2023-05-20T06:30:13.628Z,49.58
2023-05-20T06:31:19.808Z,49.68
2023-05-20T06:32:25.842Z,49.67
2023-05-20T06:33:32.305Z,50.00
2023-05-20T06:34:38.809Z,50.03
2023-05-20T06:35:45.006Z,50.21
2023-05-20T06:36:50.783Z,50.43
2023-05-20T06:37:56.936Z,50.43
2023-05-20T06:39:06.519Z,50.59
2023-05-20T06:40:14.714Z,50.57
2023-05-20T06:41:22.549Z,50.80
2023-05-20T06:42:28.753Z,50.78
2023-05-20T06:43:34.919Z,50.77
2023-05-20T06:44:40.850Z,50.97
2023-05-20T06:45:51.573Z,50.59
2023-05-20T06:46:59.941Z,50.22
2023-05-20T06:48:10.319Z,50.27
2023-05-20T06:49:16.770Z,50.39
2023-05-20T06:50:23.556Z,50.27
2023-05-20T06:51:31.240Z,50.05
2023-05-20T06:52:37.591Z,49.95
2023-05-20T06:53:46.187Z,49.66
2023-05-20T06:54:52.205Z,49.69
2023-05-20T06:55:58.476Z,49.30
2023-05-20T06:57:06.092Z,48.98
2023-05-20T06:58:11.988Z,49.06
2023-05-20T06:59:18.301Z,48.88
2023-05-20T07:00:24.636Z,48.29
2023-05-20T07:01:30.414Z,47.37
2023-05-20T07:02:36.404Z,46.65
2023-05-20T07:03:44.307Z,46.48
2023-05-20T07:04:51.254Z,47.07
2023-05-20T07:05:57.130Z,46.71
2023-05-20T07:07:04.478Z,46.21
2023-05-20T07:08:11.418Z,45.63
2023-05-20T07:09:18.044Z,45.64
2023-05-20T07:10:24.396Z,45.35
2023-05-20T07:11:30.255Z,45.45
2023-05-20T07:12:37.132Z,45.77
2023-05-20T07:13:43.567Z,45.39
2023-05-20T07:14:49.509Z,45.25
2023-05-20T07:15:55.454Z,45.20
2023-05-20T07:17:02.383Z,44.69
2023-05-20T07:18:16.416Z,44.18
2023-05-20T07:19:22.916Z,43.25
2023-05-20T07:20:29.767Z,42.36
2023-05-20T07:21:36.886Z,42.80
2023-05-20T07:22:46.010Z,42.79
2023-05-20T07:23:50.163Z,42.77
2023-05-20T07:24:56.366Z,42.73
2023-05-20T07:26:03.703Z,42.40
2023-05-20T07:27:09.664Z,42.09
2023-05-20T07:28:18.908Z,42.17
2023-05-20T07:29:25.096Z,41.06
2023-05-20T07:30:31.214Z,41.69
2023-05-20T07:31:38.415Z,40.34
2023-05-20T07:32:44.652Z,40.37
2023-05-20T07:33:51.942Z,40.66
2023-05-20T07:34:58.005Z,39.77
2023-05-20T07:36:04.103Z,39.91
2023-05-20T07:37:13.480Z,39.09
2023-05-20T07:38:19.803Z,39.41
2023-05-20T07:39:26.614Z,38.79
2023-05-20T07:40:34.217Z,37.81
2023-05-20T07:41:40.981Z,37.90
2023-05-20T07:42:46.964Z,37.47
2023-05-20T07:43:53.110Z,37.65
2023-05-20T07:44:58.911Z,37.01
2023-05-20T07:46:04.961Z,36.78
2023-05-20T07:47:13.465Z,36.50
2023-05-20T07:48:23.291Z,36.41
2023-05-20T07:49:30.089Z,36.67
2023-05-20T07:50:37.973Z,37.15
2023-05-20T07:51:46.560Z,36.80
2023-05-20T07:52:56.825Z,36.73
2023-05-20T07:54:04.286Z,36.33
2023-05-20T07:55:10.677Z,36.63
2023-05-20T07:56:16.850Z,36.55
2023-05-20T07:57:23.582Z,36.87
2023-05-20T07:58:30.854Z,36.58
2023-05-20T07:59:37.297Z,36.37
2023-05-20T08:00:44.040Z,36.44
2023-05-20T08:01:49.975Z,37.28
2023-05-20T08:02:56.525Z,37.24
2023-05-20T08:04:03.200Z,37.20
2023-05-20T08:05:11.155Z,37.83
2023-05-20T08:06:17.658Z,38.28
2023-05-20T08:07:23.837Z,38.49
2023-05-20T08:08:31.449Z,38.41
2023-05-20T08:09:37.914Z,38.28
2023-05-20T08:10:44.262Z,38.23
2023-05-20T08:11:50.134Z,37.92
2023-05-20T08:12:56.046Z,37.33
2023-05-20T08:14:02.586Z,37.32
2023-05-20T08:15:12.568Z,37.61
2023-05-20T08:16:19.157Z,37.77
2023-05-20T08:17:25.427Z,37.81
2023-05-20T08:18:39.128Z,38.24
2023-05-20T08:19:46.282Z,38.22
2023-05-20T08:20:52.493Z,38.07
2023-05-20T08:21:58.583Z,37.24
2023-05-20T08:23:05.144Z,37.19
2023-05-20T08:24:12.528Z,37.34
2023-05-20T08:25:20.158Z,37.23
2023-05-20T08:26:26.893Z,36.96
2023-05-20T08:27:32.866Z,36.85
2023-05-20T08:28:39.609Z,36.49
2023-05-20T08:29:46.270Z,36.25
2023-05-20T08:30:52.198Z,36.75
2023-05-20T08:31:59.906Z,37.03
2023-05-20T08:33:06.183Z,37.12
2023-05-20T08:34:12.714Z,37.44
2023-05-20T08:35:18.895Z,37.53
2023-05-20T08:36:25.420Z,37.68
2023-05-20T08:37:31.826Z,37.57
2023-05-20T08:38:38.032Z,37.48
2023-05-20T08:39:47.681Z,37.59
2023-05-20T08:40:56.871Z,37.39
2023-05-20T08:42:01.980Z,37.37
2023-05-20T08:43:08.586Z,37.15
2023-05-20T08:44:15.145Z,37.29
2023-05-20T08:45:27.543Z,36.53
2023-05-20T08:46:36.099Z,37.20
2023-05-20T08:47:44.808Z,36.85
2023-05-20T08:48:51.674Z,36.90
2023-05-20T08:49:57.547Z,36.79
2023-05-20T08:51:06.749Z,36.84
2023-05-20T08:52:14.792Z,36.57
2023-05-20T08:53:22.640Z,36.29
2023-05-20T08:54:46.530Z,36.53
2023-05-20T08:56:02.550Z,36.36
2023-05-20T08:57:08.646Z,36.59
2023-05-20T08:58:15.803Z,36.05
2023-05-20T08:59:22.458Z,35.60
2023-05-20T09:00:29.032Z,35.43
2023-05-20T09:01:41.716Z,35.31
2023-05-20T09:02:48.484Z,35.38
2023-05-20T09:03:55.566Z,35.49
2023-05-20T09:05:01.488Z,35.84
2023-05-20T09:06:09.734Z,36.00
2023-05-20T09:07:26.528Z,36.03
2023-05-20T09:08:33.196Z,35.86
2023-05-20T09:09:39.431Z,35.68
2023-05-20T09:10:46.194Z,35.64
2023-05-20T09:11:52.144Z,34.69
2023-05-20T09:12:57.952Z,34.98
2023-05-20T09:14:04.538Z,35.21
2023-05-20T09:15:11.461Z,34.09
2023-05-20T09:16:17.890Z,34.11
2023-05-20T09:17:25.212Z,34.09
2023-05-20T09:18:32.298Z,33.90
2023-05-20T09:19:38.768Z,33.94
2023-05-20T09:20:46.974Z,33.89
2023-05-20T09:21:56.228Z,34.16
2023-05-20T09:23:03.624Z,33.77
2023-05-20T09:24:09.958Z,33.55
2023-05-20T09:25:23.742Z,33.29
2023-05-20T09:26:30.911Z,32.98
2023-05-20T09:27:37.329Z,33.13
2023-05-20T09:28:43.360Z,33.29
2023-05-20T09:29:50.894Z,33.78
2023-05-20T09:31:02.237Z,33.99
2023-05-20T09:32:09.567Z,34.37
2023-05-20T09:33:16.670Z,34.87
2023-05-20T09:34:23.940Z,35.21
2023-05-20T09:35:30.238Z,35.25
2023-05-20T09:36:39.822Z,35.47
2023-05-20T09:37:48.804Z,35.74
2023-05-20T09:39:00.495Z,35.98
2023-05-20T09:40:15.858Z,36.11
2023-05-20T09:41:29.457Z,36.28
2023-05-20T09:42:40.012Z,36.45
2023-05-20T09:43:48.298Z,36.89
2023-05-20T09:44:58.481Z,37.07
2023-05-20T09:46:06.226Z,37.03
2023-05-20T09:47:12.982Z,36.83
2023-05-20T09:48:19.599Z,36.35
2023-05-20T09:49:31.392Z,36.05
2023-05-20T09:50:37.764Z,36.05
2023-05-20T09:51:46.224Z,36.47
2023-05-20T09:52:53.572Z,36.86
2023-05-20T09:54:01.027Z,36.96
2023-05-20T09:55:12.987Z,37.24
2023-05-20T09:56:22.099Z,37.61
2023-05-20T09:57:26.322Z,37.85
2023-05-20T09:58:34.105Z,37.81
2023-05-20T09:59:40.690Z,37.79
2023-05-20T10:00:47.254Z,37.90
2023-05-20T10:01:53.237Z,38.10
2023-05-20T10:03:00.224Z,38.18
2023-05-20T10:04:09.193Z,38.53
2023-05-20T10:05:17.431Z,38.46
2023-05-20T10:06:39.361Z,38.54
2023-05-20T10:08:16.158Z,38.55
2023-05-20T10:09:46.576Z,38.78
2023-05-20T10:11:06.076Z,39.05
2023-05-20T10:12:25.012Z,38.94
2023-05-20T10:13:46.675Z,38.85
2023-05-20T10:15:06.231Z,39.29
2023-05-20T10:16:25.878Z,39.45
2023-05-20T10:17:41.294Z,39.46
2023-05-20T10:18:58.893Z,39.53
2023-05-20T10:20:09.365Z,39.79
2023-05-20T10:21:24.814Z,40.07
2023-05-20T10:22:34.199Z,39.85
2023-05-20T10:23:40.872Z,39.50
2023-05-20T10:24:47.319Z,39.53
2023-05-20T10:25:56.787Z,39.36
2023-05-20T10:27:04.618Z,39.37
2023-05-20T10:28:11.661Z,39.47
2023-05-20T10:29:21.364Z,39.57
2023-05-20T10:30:27.832Z,39.77
2023-05-20T10:31:44.717Z,39.69
2023-05-20T10:33:01.096Z,39.64
2023-05-20T10:34:20.072Z,39.82
2023-05-20T10:35:28.992Z,39.91
2023-05-20T10:36:35.575Z,39.77
2023-05-20T10:37:48.969Z,39.53
2023-05-20T10:39:01.638Z,39.30
2023-05-20T10:40:13.992Z,39.28
2023-05-20T10:41:25.064Z,39.56
2023-05-20T10:42:31.397Z,39.41
2023-05-20T10:43:37.991Z,39.22
2023-05-20T10:44:46.966Z,39.26
2023-05-20T10:45:55.368Z,39.01
2023-05-20T10:47:24.506Z,38.73
2023-05-20T10:48:34.685Z,38.70
2023-05-20T10:49:47.875Z,38.53
2023-05-20T10:50:57.113Z,38.86
2023-05-20T10:52:03.563Z,38.92
2023-05-20T10:53:29.385Z,38.54
2023-05-20T10:54:46.942Z,38.43
2023-05-20T10:55:56.332Z,38.30
2023-05-20T10:57:09.518Z,38.03
2023-05-20T10:58:17.231Z,37.91
2023-05-20T10:59:26.562Z,37.40
2023-05-20T11:00:35.078Z,37.12
2023-05-20T11:01:39.945Z,36.72
2023-05-20T11:02:47.562Z,36.43
2023-05-20T11:03:58.047Z,36.33
2023-05-20T11:05:13.054Z,36.21
2023-05-20T11:06:18.707Z,36.20
2023-05-20T11:07:29.328Z,36.35
2023-05-20T11:08:37.170Z,35.41
2023-05-20T11:09:51.891Z,35.28
2023-05-20T11:10:59.558Z,35.46
2023-05-20T11:12:07.368Z,34.26
2023-05-20T11:13:15.717Z,33.51
2023-05-20T11:14:23.974Z,34.16
2023-05-20T11:15:31.143Z,34.14
2023-05-20T11:16:37.975Z,33.31
2023-05-20T11:17:56.519Z,32.90
2023-05-20T11:19:03.513Z,32.91
2023-05-20T11:20:15.839Z,33.22
2023-05-20T11:21:21.985Z,33.39
2023-05-20T11:22:28.108Z,32.94
2023-05-20T11:23:40.621Z,32.38
2023-05-20T11:24:48.211Z,32.10
2023-05-20T11:25:55.239Z,31.63
2023-05-20T11:27:02.721Z,30.85
2023-05-20T11:28:17.773Z,31.10
2023-05-20T11:29:23.606Z,31.13
2023-05-20T11:30:30.513Z,31.17
2023-05-20T11:31:39.447Z,31.74
2023-05-20T11:32:56.399Z,32.32
2023-05-20T11:34:05.216Z,32.23
2023-05-20T11:35:23.748Z,31.63
2023-05-20T11:36:31.064Z,31.15
2023-05-20T11:37:37.898Z,31.04
2023-05-20T11:38:46.392Z,30.35
2023-05-20T11:40:10.299Z,30.74
2023-05-20T11:41:16.529Z,31.26
2023-05-20T11:42:23.499Z,31.57
2023-05-20T11:43:30.293Z,32.16
2023-05-20T11:44:36.769Z,32.12
2023-05-20T11:45:46.080Z,31.11
2023-05-20T11:46:59.248Z,30.13
2023-05-20T11:48:06.540Z,30.20
2023-05-20T11:49:17.153Z,30.52
2023-05-20T11:50:24.288Z,30.98
2023-05-20T11:51:30.824Z,31.30
2023-05-20T11:52:39.227Z,31.48
2023-05-20T11:53:49.972Z,31.02
2023-05-20T11:54:57.482Z,30.76
2023-05-20T11:56:04.967Z,30.17
2023-05-20T11:57:17.285Z,30.55
2023-05-20T11:58:26.952Z,30.75
2023-05-20T11:59:33.229Z,31.36
2023-05-20T12:00:50.116Z,31.63
2023-05-20T12:01:59.165Z,31.49
2023-05-20T12:03:05.540Z,30.75
2023-05-20T12:04:15.152Z,30.77
2023-05-20T12:05:22.193Z,30.98
2023-05-20T12:06:28.510Z,30.78
2023-05-20T12:07:34.262Z,30.91
2023-05-20T12:08:40.530Z,31.29
2023-05-20T12:09:46.456Z,31.44
2023-05-20T12:10:52.603Z,31.68
2023-05-20T12:11:59.462Z,31.55
2023-05-20T12:13:09.507Z,31.24
2023-05-20T12:14:16.165Z,31.67
2023-05-20T12:15:21.965Z,31.61
2023-05-20T12:16:28.549Z,31.38
2023-05-20T12:17:48.101Z,31.43
2023-05-20T12:18:53.891Z,31.26
2023-05-20T12:20:00.136Z,31.41
2023-05-20T12:21:06.753Z,31.87
2023-05-20T12:22:12.869Z,31.83
2023-05-20T12:23:19.516Z,32.17
2023-05-20T12:24:25.924Z,32.33
2023-05-20T12:25:32.264Z,31.68
2023-05-20T12:26:38.996Z,31.74
2023-05-20T12:27:48.533Z,30.64
2023-05-20T12:28:55.212Z,30.58
2023-05-20T12:30:01.855Z,30.48
2023-05-20T12:31:09.028Z,30.28
2023-05-20T12:32:15.251Z,29.40
2023-05-20T12:33:21.482Z,29.33
2023-05-20T12:34:27.719Z,29.30
2023-05-20T12:35:42.029Z,29.15
2023-05-20T12:36:51.490Z,29.19
2023-05-20T12:37:57.416Z,29.22
2023-05-20T12:39:05.464Z,28.99
2023-05-20T12:40:14.025Z,29.28
2023-05-20T12:41:20.486Z,29.58
2023-05-20T12:42:27.984Z,29.64
2023-05-20T12:43:36.928Z,29.85
2023-05-20T12:44:43.557Z,28.91
2023-05-20T12:45:51.323Z,28.35
2023-05-20T12:46:58.013Z,28.12
2023-05-20T12:48:06.121Z,27.31
2023-05-20T12:49:12.584Z,27.08
2023-05-20T12:50:18.569Z,27.16
2023-05-20T12:51:26.417Z,27.34
2023-05-20T12:52:32.569Z,27.58
2023-05-20T12:53:40.342Z,27.86
2023-05-20T12:54:46.462Z,28.09
2023-05-20T12:55:52.596Z,28.53
2023-05-20T12:56:59.120Z,28.73
2023-05-20T12:58:04.829Z,28.82
2023-05-20T12:59:10.952Z,29.20
2023-05-20T13:00:18.805Z,29.71
2023-05-20T13:01:24.921Z,29.95
2023-05-20T13:02:32.187Z,30.21
2023-05-20T13:03:38.722Z,30.06
2023-05-20T13:04:49.017Z,30.24
2023-05-20T13:05:59.010Z,30.64
2023-05-20T13:07:05.885Z,30.72
2023-05-20T13:08:12.941Z,30.25
2023-05-20T13:09:19.246Z,26.68
2023-05-20T13:10:25.759Z,25.76
2023-05-20T13:11:31.531Z,25.63
2023-05-20T13:12:38.520Z,25.02
2023-05-20T13:13:44.289Z,24.89
2023-05-20T13:14:50.047Z,24.18
2023-05-20T13:15:56.127Z,23.55
2023-05-20T13:17:02.447Z,23.00
2023-05-20T13:18:08.515Z,23.24
2023-05-20T13:19:14.827Z,22.20
2023-05-20T13:20:21.672Z,22.68
2023-05-20T13:21:28.188Z,22.27
2023-05-20T13:22:35.206Z,22.09
2023-05-20T13:23:45.657Z,22.01
2023-05-20T13:24:52.470Z,22.30
2023-05-20T13:26:00.244Z,22.73
2023-05-20T13:27:06.809Z,22.95
2023-05-20T13:28:19.503Z,23.06
2023-05-20T13:29:25.439Z,23.30
2023-05-20T13:30:32.996Z,22.91
2023-05-20T13:31:39.566Z,22.98
2023-05-20T13:32:46.357Z,23.20
2023-05-20T13:33:53.684Z,22.99
2023-05-20T13:35:00.147Z,22.42
2023-05-20T13:36:07.435Z,21.79
2023-05-20T13:37:13.378Z,21.47
2023-05-20T13:38:19.490Z,21.57
2023-05-20T13:39:25.209Z,21.47
2023-05-20T13:40:31.184Z,21.89
2023-05-20T13:41:37.742Z,21.99
2023-05-20T13:42:44.314Z,22.01
2023-05-20T13:43:50.772Z,22.58
2023-05-20T13:44:56.609Z,22.39
2023-05-20T13:46:04.041Z,22.47
2023-05-20T13:47:10.791Z,22.41
2023-05-20T13:48:17.072Z,22.66
2023-05-20T13:49:25.960Z,23.16
2023-05-20T13:50:32.295Z,23.62
2023-05-20T13:51:38.496Z,23.96
2023-05-20T13:52:44.422Z,24.30
2023-05-20T13:53:52.076Z,24.38
2023-05-20T13:54:58.090Z,25.07
2023-05-20T13:56:09.244Z,25.39
2023-05-20T13:57:15.522Z,25.18
2023-05-20T13:58:21.623Z,25.79
2023-05-20T13:59:27.565Z,25.73
2023-05-20T14:00:34.208Z,26.10
2023-05-20T14:01:45.561Z,26.07
2023-05-20T14:02:51.935Z,25.47
2023-05-20T14:03:58.567Z,25.27
2023-05-20T14:05:09.854Z,24.60
2023-05-20T14:06:19.242Z,23.57
2023-05-20T14:07:25.986Z,23.18
2023-05-20T14:08:32.067Z,23.21
2023-05-20T14:09:38.253Z,22.51
2023-05-20T14:10:44.312Z,22.29
2023-05-20T14:11:51.951Z,21.37
2023-05-20T14:13:03.014Z,21.55
2023-05-20T14:14:09.756Z,22.17
2023-05-20T14:15:16.442Z,21.59
2023-05-20T14:16:22.932Z,21.24
2023-05-20T14:17:28.952Z,21.20
2023-05-20T14:18:35.032Z,21.00
2023-05-20T14:19:41.550Z,20.81
2023-05-20T14:20:49.112Z,20.43
2023-05-20T14:21:55.864Z,20.03
2023-05-20T14:23:02.393Z,18.89
2023-05-20T14:24:09.273Z,18.47
2023-05-20T14:25:15.379Z,18.70
2023-05-20T14:26:21.825Z,19.67
2023-05-20T14:27:28.734Z,20.66
2023-05-20T14:28:34.879Z,21.41
2023-05-20T14:29:41.013Z,21.25
2023-05-20T14:30:47.254Z,21.01
2023-05-20T14:31:53.389Z,21.06
2023-05-20T14:32:59.749Z,20.79